Time;durP1;ratioP1;P1;durP2;ratioP2;P2;SDS_P1;SDS_P2;PMS_P1;PMS_P2;Temp;Humidity;BMP_temperature;BMP_pressure;BME280_temperature;BME280_humidity;BME280_pressure;Samples;Min_cycle;Max_cycle;Signal;HPM_P1;HPM_P2
2021/04/11 00:00:06;;;;;;;;;;;;;;;-142.75;70.70;78267.47;5088190;28;20289;-79
2021/04/11 00:02:31;;;;;;;;;;;;;;;-142.75;70.73;78265.50;5068402;28;19947;-79
2021/04/11 00:04:56;;;;;;;;;;;;;;;-142.75;70.70;78261.56;5080322;28;19912;-78
2021/04/11 00:07:21;;;;;;;;;;;;;;;-142.75;70.76;78251.72;5080131;28;19913;-79
2021/04/11 00:09:47;;;;;;;;;;;;;;;-142.75;70.76;78261.56;5079298;28;19952;-83
2021/04/11 00:12:12;;;;;;;;;;;;;;;-142.75;70.64;78271.41;5077851;28;19919;-80
2021/04/11 00:14:37;;;;;;;;;;;;;;;-142.75;70.42;78273.38;5078533;28;19919;-82
2021/04/11 00:17:02;;;;;;;;;;;;;;;-142.75;70.52;78263.53;5076239;28;20374;-82
2021/04/11 00:19:28;;;;;;;;;;;;;;;-142.75;70.55;78255.66;5079094;28;19913;-80
2021/04/11 00:21:53;;;;;;;;;;;;;;;-142.75;70.62;78257.63;5079821;28;19912;-79
2021/04/11 00:24:18;;;;;;;;;;;;;;;-142.75;70.37;78255.66;5079599;28;19912;-80
2021/04/11 00:26:43;;;;;;;;;;;;;;;-142.75;70.33;78253.69;5076800;28;19969;-79
2021/04/11 00:29:08;;;;;;;;;;;;;;;-142.75;70.52;78251.72;5078008;28;19912;-78
2021/04/11 00:31:34;;;;;;;;;;;;;;;-142.75;70.58;78253.69;5078731;28;19985;-78
2021/04/11 00:33:59;;;;;;;;;;;;;;;-142.75;70.67;78261.56;5078250;28;19923;-78
2021/04/11 00:36:24;;;;;;;;;;;;;;;-142.75;70.40;78265.50;5079398;28;20023;-79
2021/04/11 00:38:49;;;;;;;;;;;;;;;-142.75;70.59;78257.63;5079246;28;19999;-82
2021/04/11 00:41:14;;;;;;;;;;;;;;;-142.75;70.59;78257.63;5078366;28;19924;-81
2021/04/11 00:43:40;;;;;;;;;;;;;;;-142.75;70.52;78255.66;5079694;28;19912;-78
2021/04/11 00:46:06;;;;;;;;;;;;;;;-142.75;70.52;78243.84;5060095;28;20310;-81
2021/04/11 00:48:32;;;;;;;;;;;;;;;-142.75;70.69;78247.78;5077313;28;19912;-80
2021/04/11 00:50:57;;;;;;;;;;;;;;;-142.75;70.75;78243.84;5078278;28;19916;-79
2021/04/11 00:53:23;;;;;;;;;;;;;;;-142.75;70.82;78228.09;5077584;28;19952;-81
2021/04/11 00:55:49;;;;;;;;;;;;;;;-142.75;71.04;78230.06;5075443;28;20615;-82
2021/04/11 00:58:14;;;;;;;;;;;;;;;-142.75;70.79;78228.09;5056380;28;20324;-85
2021/04/11 01:00:39;;;;;;;;;;;;;;;-142.75;71.01;78216.28;5059173;28;19977;-82
2021/04/11 01:03:06;;;;;;;;;;;;;;;-142.75;71.03;78228.09;5077634;28;20038;-81
2021/04/11 01:05:34;;;;;;;;;;;;;;;-142.75;71.01;78216.28;5074488;28;19912;-76
2021/04/11 01:08:00;;;;;;;;;;;;;;;-142.75;71.02;78228.09;5059435;28;19956;-78
2021/04/11 01:10:30;;;;;;;;;;;;;;;-142.75;70.98;78224.16;5078107;28;20392;-77
2021/04/11 01:12:55;;;;;;;;;;;;;;;-142.75;71.01;78235.97;5060568;28;19912;-78
2021/04/11 01:15:23;;;;;;;;;;;;;;;-142.75;70.85;78235.97;5079541;28;19912;-80
2021/04/11 01:17:48;;;;;;;;;;;;;;;-142.75;70.69;78232.03;5060905;28;19961;-81
2021/04/11 01:20:13;;;;;;;;;;;;;;;-142.75;70.81;78226.13;5078144;28;19944;-78
2021/04/11 01:22:46;;;;;;;;;;;;;;;-142.75;71.03;78224.16;5060620;28;19912;-78
2021/04/11 01:25:18;;;;;;;;;;;;;;;-142.75;70.83;78235.97;5061410;28;20255;-77
2021/04/11 01:27:46;;;;;;;;;;;;;;;-142.75;70.89;78228.09;5060846;28;19939;-79
2021/04/11 01:30:14;;;;;;;;;;;;;;;-142.75;70.99;78235.97;5076489;28;19923;-83
2021/04/11 01:32:41;;;;;;;;;;;;;;;-142.75;71.01;78235.97;5062311;28;19912;-79
2021/04/11 01:35:07;;;;;;;;;;;;;;;-142.75;71.04;78235.97;5083609;28;19912;-78
2021/04/11 01:37:32;;;;;;;;;;;;;;;-142.75;70.92;78239.91;5063408;28;19913;-80
2021/04/11 01:39:58;;;;;;;;;;;;;;;-142.75;71.04;78243.84;5081062;28;20390;-81
2021/04/11 01:42:23;;;;;;;;;;;;;;;-142.75;71.11;78247.78;5063400;28;19919;-84
2021/04/11 01:44:50;;;;;;;;;;;;;;;-142.75;71.24;78241.88;5078454;28;20002;-82
2021/04/11 01:47:17;;;;;;;;;;;;;;;-142.75;71.16;78241.88;5060700;28;19999;-81
2021/04/11 01:49:43;;;;;;;;;;;;;;;-142.75;71.25;78235.97;5061321;28;20339;-83
2021/04/11 01:52:11;;;;;;;;;;;;;;;-142.75;71.31;78243.84;5062060;28;19951;-77
2021/04/11 01:54:37;;;;;;;;;;;;;;;-142.75;71.10;78247.78;5078541;28;19916;-79
2021/04/11 01:57:09;;;;;;;;;;;;;;;-142.75;71.17;78253.69;5059695;28;19920;-80
2021/04/11 01:59:35;;;;;;;;;;;;;;;-142.75;71.05;78251.72;5075821;28;19961;-78
2021/04/11 02:02:00;;;;;;;;;;;;;;;-142.75;71.17;78253.69;5076209;28;19913;-77
2021/04/11 02:04:26;;;;;;;;;;;;;;;-142.75;71.35;78251.72;5059539;28;19920;-82
2021/04/11 02:06:52;;;;;;;;;;;;;;;-142.75;71.32;78247.78;5075760;28;19912;-79
2021/04/11 02:09:19;;;;;;;;;;;;;;;-142.75;71.22;78249.75;5060872;28;19986;-77
2021/04/11 02:11:46;;;;;;;;;;;;;;;-142.75;71.18;78245.81;5056005;28;19918;-84
2021/04/11 02:14:11;;;;;;;;;;;;;;;-142.75;71.13;78245.81;5061703;28;19913;-81
2021/04/11 02:16:36;;;;;;;;;;;;;;;-142.75;71.16;78255.66;5059402;28;20380;-81
2021/04/11 02:19:06;;;;;;;;;;;;;;;-142.75;71.20;78255.66;5079552;28;20325;-78
2021/04/11 02:21:32;;;;;;;;;;;;;;;-142.75;71.21;78259.59;5060715;28;20405;-80
2021/04/11 02:23:58;;;;;;;;;;;;;;;-142.75;71.27;78257.63;5078665;28;19991;-80
2021/04/11 02:26:24;;;;;;;;;;;;;;;-142.75;71.22;78255.66;5077034;28;20007;-79
2021/04/11 02:28:49;;;;;;;;;;;;;;;-142.75;71.22;78271.41;5077620;28;19912;-80
2021/04/11 02:31:17;;;;;;;;;;;;;;;-142.75;71.11;78275.34;5060041;28;19969;-80
2021/04/11 02:33:50;;;;;;;;;;;;;;;-142.75;71.04;78285.19;5076948;28;20378;-80
2021/04/11 02:36:16;;;;;;;;;;;;;;;-142.75;70.98;78279.28;5074744;28;19912;-79
2021/04/11 02:38:42;;;;;;;;;;;;;;;-142.75;71.11;78291.09;5059629;28;19919;-81
2021/04/11 02:41:08;;;;;;;;;;;;;;;-142.75;71.23;78291.09;5058168;28;19916;-80
2021/04/11 02:43:33;;;;;;;;;;;;;;;-142.75;70.71;78297.00;5074335;28;19935;-80
2021/04/11 02:45:58;;;;;;;;;;;;;;;-142.75;70.58;78295.06;5076316;28;19916;-81
2021/04/11 02:48:24;;;;;;;;;;;;;;;-142.75;70.90;78289.13;5076168;28;19919;-79
2021/04/11 02:50:49;;;;;;;;;;;;;;;-142.75;70.76;78291.09;5076341;28;19927;-80
2021/04/11 02:53:16;;;;;;;;;;;;;;;-142.75;70.83;78297.00;5073998;28;19994;-80
2021/04/11 02:55:42;;;;;;;;;;;;;;;-142.75;70.99;78302.94;5058310;28;19913;-81
2021/04/11 02:58:13;;;;;;;;;;;;;;;-142.75;70.82;78295.06;5058575;28;19975;-81
2021/04/11 03:00:43;;;;;;;;;;;;;;;-142.75;70.64;78299.00;5074201;28;20377;-81
2021/04/11 03:03:09;;;;;;;;;;;;;;;-142.75;70.58;78289.13;5078505;28;19919;-80
2021/04/11 03:05:35;;;;;;;;;;;;;;;-142.75;70.61;78293.06;5081198;28;19912;-80
2021/04/11 03:08:03;;;;;;;;;;;;;;;-142.75;70.96;78293.06;5083157;28;19920;-79
2021/04/11 03:10:34;;;;;;;;;;;;;;;-142.75;70.95;78299.00;5063039;28;20393;-81
2021/04/11 03:13:00;;;;;;;;;;;;;;;-142.75;70.56;78299.00;5057259;28;19912;-79
2021/04/11 03:15:26;;;;;;;;;;;;;;;-142.75;70.72;78299.00;5059111;28;19912;-79
2021/04/11 03:17:53;;;;;;;;;;;;;;;-142.75;70.87;78308.84;5059302;28;19935;-80
2021/04/11 03:20:25;;;;;;;;;;;;;;;-142.75;71.07;78306.88;5076077;28;19917;-86
2021/04/11 03:22:52;;;;;;;;;;;;;;;-142.75;71.09;78295.06;5073383;28;19918;-80
2021/04/11 03:25:18;;;;;;;;;;;;;;;-142.75;71.01;78308.84;5075895;28;19912;-80
2021/04/11 03:27:49;;;;;;;;;;;;;;;-142.75;70.98;78310.81;5057455;28;19919;-81
2021/04/11 03:30:26;;;;;;;;;;;;;;;-142.75;71.07;78300.97;5075693;28;19958;-84
2021/04/11 03:32:53;;;;;;;;;;;;;;;-142.75;71.21;78299.00;5058024;28;19912;-84
2021/04/11 03:35:21;;;;;;;;;;;;;;;-142.75;71.07;78306.88;5056723;28;19912;-80
2021/04/11 03:37:48;;;;;;;;;;;;;;;-142.75;71.06;78316.72;5057443;28;19916;-82
2021/04/11 03:40:15;;;;;;;;;;;;;;;-142.75;71.05;78310.81;5056655;28;19916;-84
2021/04/11 03:42:45;;;;;;;;;;;;;;;-142.75;70.91;78308.84;5056540;28;20491;-81
2021/04/11 03:45:11;;;;;;;;;;;;;;;-142.75;70.94;78306.88;5073471;28;20003;-78
2021/04/11 03:47:38;;;;;;;;;;;;;;;-142.75;70.88;78316.72;5057612;28;19959;-78
2021/04/11 03:50:04;;;;;;;;;;;;;;;-142.75;70.86;78310.81;5058451;28;19917;-81
2021/04/11 03:52:33;;;;;;;;;;;;;;;-142.75;70.95;78316.72;5075223;28;19913;-82
2021/04/11 03:55:00;;;;;;;;;;;;;;;-142.75;70.86;78318.69;5074704;28;20262;-79
2021/04/11 03:57:29;;;;;;;;;;;;;;;-142.75;70.74;78326.56;5073064;28;20003;-82
2021/04/11 03:59:59;;;;;;;;;;;;;;;-142.75;70.67;78328.53;5057010;28;20348;-81
2021/04/11 04:02:25;;;;;;;;;;;;;;;-142.75;70.77;78326.56;5073549;28;19913;-80
2021/04/11 04:04:51;;;;;;;;;;;;;;;-142.75;70.69;78330.50;5073004;28;19934;-82
2021/04/11 04:07:20;;;;;;;;;;;;;;;-142.75;70.60;78318.69;5058799;28;20429;-81
2021/04/11 04:09:56;;;;;;;;;;;;;;;-142.75;70.34;78330.50;5075794;28;19938;-80
2021/04/11 04:12:35;;;;;;;;;;;;;;;-142.75;70.51;78334.44;5076883;28;19963;-81
2021/04/11 04:15:10;;;;;;;;;;;;;;;-142.75;70.45;78338.38;5078773;28;19912;-80
2021/04/11 04:17:50;;;;;;;;;;;;;;;-142.75;70.46;78336.41;5078971;28;19912;-79
2021/04/11 04:20:39;;;;;;;;;;;;;;;-142.75;70.26;78344.28;5079871;28;19927;-79
2021/04/11 04:23:08;;;;;;;;;;;;;;;-142.75;70.21;78348.22;5050416;28;19912;-79
2021/04/11 04:25:45;;;;;;;;;;;;;;;-142.75;70.35;78338.38;5062022;28;20282;-81
2021/04/11 04:28:20;;;;;;;;;;;;;;;-142.75;69.97;78344.28;5057736;28;19995;-81
2021/04/11 04:31:12;;;;;;;;;;;;;;;-142.75;70.27;78350.19;5058972;28;19912;-82
2021/04/11 04:33:40;;;;;;;;;;;;;;;-142.75;70.06;78354.13;5030832;28;19912;-79
2021/04/11 04:36:11;;;;;;;;;;;;;;;-142.75;69.84;78346.25;5079144;28;19912;-83
2021/04/11 04:38:44;;;;;;;;;;;;;;;-142.75;69.84;78350.19;5079258;28;19916;-80
2021/04/11 04:41:18;;;;;;;;;;;;;;;-142.75;69.93;78350.19;5082470;28;20007;-79
2021/04/11 04:43:56;;;;;;;;;;;;;;;-142.75;70.09;78365.94;5081180;28;19916;-78
2021/04/11 04:46:30;;;;;;;;;;;;;;;-142.75;69.60;78373.81;5079429;28;19921;-79
2021/04/11 04:49:05;;;;;;;;;;;;;;;-142.75;69.64;78371.84;5061916;28;19916;-80
2021/04/11 04:51:39;;;;;;;;;;;;;;;-142.75;69.66;78379.72;5079648;28;19912;-81
2021/04/11 04:54:18;;;;;;;;;;;;;;;-142.75;69.75;78385.63;5078975;28;19912;-82
2021/04/11 04:56:47;;;;;;;;;;;;;;;-142.75;69.81;78379.72;5062182;28;19912;-79
2021/04/11 04:59:18;;;;;;;;;;;;;;;-142.75;69.38;78383.66;5062013;28;19955;-79
2021/04/11 05:01:46;;;;;;;;;;;;;;;-142.75;69.26;78383.66;5062562;28;19917;-82
2021/04/11 05:04:24;;;;;;;;;;;;;;;-142.75;69.05;78393.50;5062661;28;19912;-79
2021/04/11 05:06:56;;;;;;;;;;;;;;;-142.75;69.33;78389.56;5058590;28;19938;-79
2021/04/11 05:09:27;;;;;;;;;;;;;;;-142.75;69.28;78389.56;5061895;28;19912;-82
2021/04/11 05:12:05;;;;;;;;;;;;;;;-142.75;69.23;78389.56;5060762;28;19931;-80
2021/04/11 05:14:35;;;;;;;;;;;;;;;-142.75;69.41;78387.59;5061379;28;19912;-83
2021/04/11 05:17:06;;;;;;;;;;;;;;;-142.75;69.49;78387.59;5079783;28;19920;-82
2021/04/11 05:19:34;;;;;;;;;;;;;;;-142.75;69.08;78393.50;5077899;28;19912;-82
2021/04/11 05:22:07;;;;;;;;;;;;;;;-142.75;68.67;78383.66;5077976;28;20374;-83
2021/04/11 05:24:38;;;;;;;;;;;;;;;-142.75;69.04;78397.44;5076619;28;19912;-83
2021/04/11 05:27:03;;;;;;;;;;;;;;;-142.75;68.83;78385.63;5078810;28;19916;-85
2021/04/11 05:29:35;;;;;;;;;;;;;;;-142.75;69.04;78393.50;5077092;28;19950;-80
2021/04/11 05:32:00;;;;;;;;;;;;;;;-142.75;68.98;78393.50;5078726;28;19912;-81
2021/04/11 05:34:27;;;;;;;;;;;;;;;-142.75;68.83;78399.44;5079101;28;19963;-83
2021/04/11 05:36:52;;;;;;;;;;;;;;;-142.75;68.94;78399.44;5058967;22;19997;-76
2021/04/11 05:39:26;;;;;;;;;;;;;;;-142.75;68.56;78397.44;5014339;28;19917;-76
2021/04/11 05:41:55;;;;;;;;;;;;;;;-142.75;68.46;78405.34;5015356;28;19918;-76
2021/04/11 05:44:23;;;;;;;;;;;;;;;-142.75;68.38;78393.50;5033772;28;19921;-78
2021/04/11 05:47:07;;;;;;;;;;;;;;;-142.75;68.07;78401.38;5026739;28;19913;-78
2021/04/11 05:49:39;;;;;;;;;;;;;;;-142.75;67.56;78393.50;5006646;28;19947;-76
2021/04/11 05:52:09;;;;;;;;;;;;;;;-142.75;67.43;78403.38;5011622;28;19914;-76
2021/04/11 05:54:37;;;;;;;;;;;;;;;-142.75;67.81;78407.31;4998074;28;20355;-76
2021/04/11 05:57:05;;;;;;;;;;;;;;;-142.75;67.61;78419.13;5003956;28;19923;-76
2021/04/11 05:59:36;;;;;;;;;;;;;;;-142.75;67.05;78415.19;5002940;28;20000;-77
2021/04/11 06:02:03;;;;;;;;;;;;;;;-142.75;67.84;78417.16;5002436;28;19914;-76
2021/04/11 06:04:36;;;;;;;;;;;;;;;-142.75;67.56;78399.44;5021050;28;19917;-78
2021/04/11 06:07:14;;;;;;;;;;;;;;;-142.75;67.38;78399.44;5018546;28;19914;-77
2021/04/11 06:09:47;;;;;;;;;;;;;;;-142.75;67.13;78417.16;5000759;28;19921;-76
2021/04/11 06:12:24;;;;;;;;;;;;;;;-142.75;66.47;78413.22;4990891;28;19961;-77
2021/04/11 06:15:13;;;;;;;;;;;;;;;-142.75;66.69;78413.22;4999365;28;20339;-78
2021/04/11 06:17:41;;;;;;;;;;;;;;;-142.75;66.45;78413.22;4993559;28;19913;-76
2021/04/11 06:20:07;;;;;;;;;;;;;;;-142.75;66.67;78417.16;5006361;28;19922;-77
2021/04/11 06:22:33;;;;;;;;;;;;;;;-142.75;66.10;78401.38;5020693;28;19914;-76
2021/04/11 06:25:05;;;;;;;;;;;;;;;-142.75;66.32;78395.47;5015598;28;20354;-77
2021/04/11 06:27:39;;;;;;;;;;;;;;;-142.75;66.21;78379.72;5031432;28;19968;-76
2021/04/11 06:30:19;;;;;;;;;;;;;;;-142.75;66.39;78397.44;5013026;28;19917;-76
2021/04/11 06:32:45;;;;;;;;;;;;;;;-142.75;66.46;78381.69;5013337;28;19920;-76
2021/04/11 06:35:11;;;;;;;;;;;;;;;-142.75;66.36;78373.81;5017634;28;20004;-78
2021/04/11 06:37:38;;;;;;;;;;;;;;;-142.75;65.79;78360.03;4996330;28;19921;-77
2021/04/11 06:40:11;;;;;;;;;;;;;;;-142.75;65.67;78316.72;4997003;28;20013;-77
2021/04/11 06:42:44;;;;;;;;;;;;;;;-142.75;65.32;78220.22;4994412;28;20295;-77
2021/04/11 06:45:27;;;;;;;;;;;;;;;-142.75;62.57;78143.41;5019010;28;19913;-77
2021/04/11 06:48:11;;;;;;;;;;;;;;;-142.75;60.66;78090.25;5005055;28;19985;-77
2021/04/11 06:50:55;;;;;;;;;;;;;;;-142.75;59.73;78023.28;5011358;28;19922;-79
2021/04/11 06:53:32;;;;;;;;;;;;;;;-142.75;58.17;77922.88;5011741;28;19913;-77
2021/04/11 06:56:08;;;;;;;;;;;;;;;-142.75;56.26;77814.56;5005342;28;19920;-76
2021/04/11 06:58:44;;;;;;;;;;;;;;;-142.75;56.07;77816.53;4996281;28;19914;-78
2021/04/11 07:01:40;;;;;;;;;;;;;;;-142.75;55.46;77794.88;4997564;28;19921;-77
2021/04/11 07:04:17;;;;;;;;;;;;;;;-142.75;55.61;77783.06;5027774;28;20443;-78
2021/04/11 07:07:01;;;;;;;;;;;;;;;-142.75;55.44;77824.41;5007059;28;20000;-77
2021/04/11 07:09:45;;;;;;;;;;;;;;;-142.75;56.66;77907.09;5010784;28;19941;-76
2021/04/11 07:12:23;;;;;;;;;;;;;;;-142.75;55.85;77934.69;5009420;28;19913;-77
2021/04/11 07:14:51;;;;;;;;;;;;;;;-142.75;56.60;77926.81;5001782;28;19940;-77
2021/04/11 07:17:32;;;;;;;;;;;;;;;-142.75;55.99;77842.13;5025202;28;20371;-75
2021/04/11 07:20:16;;;;;;;;;;;;;;;-142.75;54.07;77741.72;5005946;28;19917;-77
2021/04/11 07:22:59;;;;;;;;;;;;;;;-142.75;53.94;77727.94;5011888;28;20338;-76
2021/04/11 07:25:31;;;;;;;;;;;;;;;-142.75;53.27;77743.69;5020485;28;19918;-77
2021/04/11 07:28:11;;;;;;;;;;;;;;;-142.75;54.04;77802.75;5004868;28;19918;-76
2021/04/11 07:30:49;;;;;;;;;;;;;;;-142.75;55.23;77830.31;5004578;28;19959;-77
2021/04/11 07:33:31;;;;;;;;;;;;;;;-142.75;52.59;77814.56;5001027;28;19913;-80
2021/04/11 07:36:02;;;;;;;;;;;;;;;-142.75;54.13;77828.34;4996915;28;20287;-78
2021/04/11 07:38:40;;;;;;;;;;;;;;;-142.75;53.29;77840.16;5014237;28;19980;-78
2021/04/11 07:41:18;;;;;;;;;;;;;;;-142.75;54.05;77861.81;5004812;28;20492;-77
2021/04/11 07:44:01;;;;;;;;;;;;;;;-142.75;55.04;77879.53;5002266;28;19920;-76
2021/04/11 07:46:26;;;;;;;;;;;;;;;-142.75;54.39;77909.06;5024577;28;19937;-78
2021/04/11 07:49:06;;;;;;;;;;;;;;;-142.75;55.28;77869.69;5018595;28;20388;-78
2021/04/11 07:51:34;;;;;;;;;;;;;;;-142.75;53.83;77844.09;4999777;28;19913;-77
2021/04/11 07:54:00;;;;;;;;;;;;;;;-142.75;53.28;77891.34;5025979;28;19984;-77
2021/04/11 07:56:47;;;;;;;;;;;;;;;-142.75;54.74;77948.47;5018221;28;19955;-76
2021/04/11 07:59:18;;;;;;;;;;;;;;;-142.75;55.13;77964.22;5012712;28;19921;-78
2021/04/11 08:01:43;;;;;;;;;;;;;;;-142.75;55.44;77987.84;5018405;28;19925;-78
2021/04/11 08:04:27;;;;;;;;;;;;;;;-142.75;56.00;77913.03;5010545;28;19914;-75
2021/04/11 08:07:15;;;;;;;;;;;;;;;-142.75;55.14;77879.53;5010340;28;19920;-76
2021/04/11 08:09:47;;;;;;;;;;;;;;;-142.75;54.45;77806.69;4995003;28;19936;-76
2021/04/11 08:12:29;;;;;;;;;;;;;;;-142.75;53.23;77824.41;5008445;28;19914;-77
2021/04/11 08:15:15;;;;;;;;;;;;;;;-142.75;54.36;77881.50;5016620;28;19914;-77
2021/04/11 08:17:47;;;;;;;;;;;;;;;-142.75;54.41;77905.13;4995438;28;20352;-77
2021/04/11 08:20:15;;;;;;;;;;;;;;;-142.75;54.70;77934.69;5022245;28;19944;-75
2021/04/11 08:22:40;;;;;;;;;;;;;;;-142.75;55.32;77930.75;5030249;28;19914;-76
2021/04/11 08:25:21;;;;;;;;;;;;;;;-142.75;54.54;77911.06;5016111;28;19941;-76
2021/04/11 08:28:06;;;;;;;;;;;;;;;-142.75;54.07;77840.16;5005456;28;20341;-73
2021/04/11 08:30:50;;;;;;;;;;;;;;;-142.75;52.79;77743.69;4994334;28;19948;-76
2021/04/11 08:33:27;;;;;;;;;;;;;;;-142.75;51.43;77641.28;5037455;28;19913;-77
2021/04/11 08:36:04;;;;;;;;;;;;;;;-142.75;50.67;77731.88;5011321;28;20374;-74
2021/04/11 08:38:31;;;;;;;;;;;;;;;-142.75;51.26;77810.63;5018929;28;19924;-75
2021/04/11 08:41:12;;;;;;;;;;;;;;;-142.75;52.46;77873.63;5015060;28;19928;-77
2021/04/11 08:43:49;;;;;;;;;;;;;;;-142.75;53.41;77920.91;5010170;28;19920;-75
2021/04/11 08:46:28;;;;;;;;;;;;;;;-142.75;53.54;77920.91;5029039;28;19913;-73
2021/04/11 08:48:53;;;;;;;;;;;;;;;-142.75;54.03;77926.81;5027014;28;20391;-76
2021/04/11 08:51:22;;;;;;;;;;;;;;;-142.75;54.11;77936.66;5008378;28;19920;-74
2021/04/11 08:54:08;;;;;;;;;;;;;;;-142.75;53.47;77956.34;5008975;28;19993;-76
2021/04/11 08:56:49;;;;;;;;;;;;;;;-142.75;53.71;77974.06;5003132;28;19921;-76
2021/04/11 08:59:35;;;;;;;;;;;;;;;-142.75;54.53;77972.09;4999756;28;19992;-76
2021/04/11 09:02:09;;;;;;;;;;;;;;;-142.75;53.97;78003.59;4977710;28;20303;-76
2021/04/11 09:04:51;;;;;;;;;;;;;;;-142.75;54.68;78042.97;4998294;28;19914;-76
2021/04/11 09:07:20;;;;;;;;;;;;;;;-142.75;54.70;78056.78;5013688;28;20442;-76
2021/04/11 09:09:52;;;;;;;;;;;;;;;-142.75;53.98;78082.38;5013363;28;19921;-76
2021/04/11 09:12:36;;;;;;;;;;;;;;;-142.75;54.97;78109.94;4994204;28;19914;-76
2021/04/11 09:15:10;;;;;;;;;;;;;;;-142.75;55.09;78137.50;5028152;28;19914;-76
2021/04/11 09:17:53;;;;;;;;;;;;;;;-142.75;54.57;78137.50;5013134;28;19979;-76
2021/04/11 09:20:29;;;;;;;;;;;;;;;-142.75;55.29;78145.38;5019301;28;20403;-75
2021/04/11 09:23:04;;;;;;;;;;;;;;;-142.75;54.05;78129.63;5007190;28;19913;-77
2021/04/11 09:25:31;;;;;;;;;;;;;;;-142.75;54.83;78111.91;5022427;28;19995;-78
2021/04/11 09:28:15;;;;;;;;;;;;;;;-142.75;53.57;78123.72;5010759;28;19917;-76
2021/04/11 09:30:58;;;;;;;;;;;;;;;-142.75;53.07;78133.56;5041181;28;20110;-76
2021/04/11 09:33:39;;;;;;;;;;;;;;;-142.75;54.08;78137.50;5021702;28;20364;-77
2021/04/11 09:36:23;;;;;;;;;;;;;;;-142.75;54.40;78113.88;4995252;28;19922;-75
2021/04/11 09:39:00;;;;;;;;;;;;;;;-142.75;53.56;78107.97;5012823;28;19928;-77
2021/04/11 09:41:44;;;;;;;;;;;;;;;-142.75;53.84;78106.00;5008404;28;19926;-76
2021/04/11 09:44:28;;;;;;;;;;;;;;;-142.75;54.19;78092.22;4990848;28;19922;-76
2021/04/11 09:47:16;;;;;;;;;;;;;;;-142.75;52.84;78080.41;4991921;28;19929;-77
2021/04/11 09:50:05;;;;;;;;;;;;;;;-142.75;53.50;78088.28;4994181;28;20008;-76
2021/04/11 09:52:40;;;;;;;;;;;;;;;-142.75;52.50;78078.44;5028862;28;19924;-76
2021/04/11 09:55:11;;;;;;;;;;;;;;;-142.75;52.57;78035.09;5004345;28;19914;-76
2021/04/11 09:57:49;;;;;;;;;;;;;;;-142.75;52.12;78013.44;5015185;28;19921;-76
2021/04/11 10:00:32;;;;;;;;;;;;;;;-142.75;51.91;77987.84;5002976;28;19926;-76
2021/04/11 10:03:07;;;;;;;;;;;;;;;-142.75;50.58;77822.44;5006637;28;19963;-76
2021/04/11 10:05:53;;;;;;;;;;;;;;;-142.75;49.05;77558.59;5005285;28;19997;-77
2021/04/11 10:08:37;;;;;;;;;;;;;;;-142.75;45.49;77566.47;5002081;28;19913;-78
2021/04/11 10:11:13;;;;;;;;;;;;;;;-142.75;45.27;77702.31;5014222;28;19964;-75
2021/04/11 10:13:57;;;;;;;;;;;;;;;-142.75;48.34;77828.34;5007330;28;19964;-77
2021/04/11 10:16:31;;;;;;;;;;;;;;;-142.75;48.22;77956.34;5011714;28;20387;-77
2021/04/11 10:19:15;;;;;;;;;;;;;;;-142.75;49.19;77997.69;4999315;28;19924;-75
2021/04/11 10:22:01;;;;;;;;;;;;;;;-142.75;49.60;78029.19;5005952;28;19917;-76
2021/04/11 10:24:29;;;;;;;;;;;;;;;-142.75;47.54;77879.53;5002190;28;19925;-77
2021/04/11 10:27:11;;;;;;;;;;;;;;;-142.75;48.21;77716.09;5001999;28;19991;-76
2021/04/11 10:29:37;;;;;;;;;;;;;;;-142.75;45.64;77625.53;4992095;28;19921;-78
2021/04/11 10:32:02;;;;;;;;;;;;;;;-142.75;43.77;77523.16;4991988;28;19923;-78
2021/04/11 10:34:30;;;;;;;;;;;;;;;-142.75;43.43;77391.22;5013198;28;19914;-79
2021/04/11 10:37:01;;;;;;;;;;;;;;;-142.75;39.92;77277.03;5012065;28;19933;-77
2021/04/11 10:39:27;;;;;;;;;;;;;;;-142.75;41.71;77168.75;5007333;28;19918;-78
2021/04/11 10:42:01;;;;;;;;;;;;;;;-142.75;38.97;77156.94;5020832;28;19948;-77
2021/04/11 10:44:45;;;;;;;;;;;;;;;-142.75;40.78;77141.19;5010434;28;19917;-76
2021/04/11 10:47:32;;;;;;;;;;;;;;;-142.75;39.00;77194.34;5013719;28;19913;-78
2021/04/11 10:50:06;;;;;;;;;;;;;;;-142.75;39.42;77255.38;5028136;28;19914;-76
2021/04/11 10:52:47;;;;;;;;;;;;;;;-142.75;40.19;77367.59;4991070;28;20360;-76
2021/04/11 10:55:21;;;;;;;;;;;;;;;-142.75;42.35;77538.91;4990732;28;19914;-75
2021/04/11 10:57:49;;;;;;;;;;;;;;;-142.75;41.68;77546.78;4996067;28;19929;-75
2021/04/11 11:00:23;;;;;;;;;;;;;;;-142.75;42.52;77554.66;5022473;28;20356;-76
2021/04/11 11:03:15;;;;;;;;;;;;;;;-142.75;41.77;77464.09;5010345;28;19921;-77
2021/04/11 11:05:45;;;;;;;;;;;;;;;-142.75;42.54;77645.22;4994372;28;20275;-75
2021/04/11 11:08:18;;;;;;;;;;;;;;;-142.75;43.21;77603.88;4992954;28;19914;-75
2021/04/11 11:10:53;;;;;;;;;;;;;;;-142.75;41.44;77393.19;4992440;28;19913;-76
2021/04/11 11:13:26;;;;;;;;;;;;;;;-142.75;39.82;77271.13;5007661;28;20343;-76
2021/04/11 11:16:12;;;;;;;;;;;;;;;-142.75;40.34;77149.06;5011441;28;19971;-76
2021/04/11 11:18:56;;;;;;;;;;;;;;;-142.75;39.57;77172.69;5000050;28;19918;-75
2021/04/11 11:21:54;;;;;;;;;;;;;;;-142.75;39.56;77387.28;5006306;28;19918;-75
2021/04/11 11:24:22;;;;;;;;;;;;;;;-142.75;43.33;77566.47;4979390;28;19952;-75
2021/04/11 11:27:06;;;;;;;;;;;;;;;-142.75;45.47;77672.78;4991685;28;19964;-75
2021/04/11 11:29:43;;;;;;;;;;;;;;;-142.75;45.73;77684.59;5006083;28;19918;-74
2021/04/11 11:32:17;;;;;;;;;;;;;;;-142.75;47.19;77814.56;4991410;28;19917;-73
2021/04/11 11:34:50;;;;;;;;;;;;;;;-142.75;47.71;77877.56;5024427;28;20425;-75
2021/04/11 11:37:20;;;;;;;;;;;;;;;-142.75;47.21;77816.53;5004927;28;20454;-75
2021/04/11 11:39:45;;;;;;;;;;;;;;;-142.75;45.11;77729.88;4991372;28;20059;-75
2021/04/11 11:42:29;;;;;;;;;;;;;;;-142.75;43.80;77657.03;4990800;28;19920;-75
2021/04/11 11:45:06;;;;;;;;;;;;;;;-142.75;43.31;77723.97;5024894;28;19913;-73
2021/04/11 11:47:38;;;;;;;;;;;;;;;-142.75;44.44;77676.72;5010425;28;20352;-74
2021/04/11 11:50:17;;;;;;;;;;;;;;;-142.75;45.37;77662.94;5009160;28;20000;-74
2021/04/11 11:52:45;;;;;;;;;;;;;;;-142.75;44.58;77743.69;5007019;28;19941;-73
2021/04/11 11:55:22;;;;;;;;;;;;;;;-142.75;45.78;77848.03;5004298;28;19913;-74
2021/04/11 11:58:05;;;;;;;;;;;;;;;-142.75;46.80;77877.56;4989883;28;20001;-73
2021/04/11 12:00:39;;;;;;;;;;;;;;;-142.75;47.32;77869.69;5006127;28;20380;-75
2021/04/11 12:03:10;;;;;;;;;;;;;;;-142.75;47.36;77842.13;5010439;28;19921;-73
2021/04/11 12:05:45;;;;;;;;;;;;;;;-142.75;46.00;77794.88;5010302;28;19921;-74
2021/04/11 12:08:37;;;;;;;;;;;;;;;-142.75;46.53;77804.72;5009854;28;19914;-73
2021/04/11 12:11:13;;;;;;;;;;;;;;;-142.75;46.35;77820.47;5000381;28;20724;-72
2021/04/11 12:13:42;;;;;;;;;;;;;;;-142.75;47.06;77777.16;4998774;28;19920;-73
2021/04/11 12:16:26;;;;;;;;;;;;;;;-142.75;46.24;77806.69;4988204;28;19937;-73
2021/04/11 12:19:15;;;;;;;;;;;;;;;-142.75;46.88;77881.50;4990549;28;19910;-73
2021/04/11 12:21:43;;;;;;;;;;;;;;;-142.75;46.73;77838.19;4990115;28;19925;-73
2021/04/11 12:24:14;;;;;;;;;;;;;;;-142.75;46.55;77857.88;4990378;28;19914;-74
2021/04/11 12:26:50;;;;;;;;;;;;;;;-142.75;47.67;77814.56;5006596;28;19927;-74
2021/04/11 12:29:18;;;;;;;;;;;;;;;-142.75;46.08;77836.22;5003258;28;19953;-74
2021/04/11 12:31:44;;;;;;;;;;;;;;;-142.75;45.84;77920.91;4993689;28;19918;-73
2021/04/11 12:34:18;;;;;;;;;;;;;;;-142.75;46.37;77958.31;4993780;28;19913;-74
2021/04/11 12:36:50;;;;;;;;;;;;;;;-142.75;46.41;77928.78;5000286;28;19913;-73
2021/04/11 12:39:18;;;;;;;;;;;;;;;-142.75;47.08;77891.34;5012137;28;20024;-73
2021/04/11 12:41:51;;;;;;;;;;;;;;;-142.75;46.93;77897.25;5028219;28;19971;-74
2021/04/11 12:44:41;;;;;;;;;;;;;;;-142.75;47.64;77940.59;5009051;28;19917;-73
2021/04/11 12:47:09;;;;;;;;;;;;;;;-142.75;46.73;77985.88;5012583;28;19928;-74
2021/04/11 12:49:50;;;;;;;;;;;;;;;-142.75;47.55;77981.94;5017110;28;20009;-72
2021/04/11 12:52:34;;;;;;;;;;;;;;;-142.75;46.77;77954.38;4993008;28;20449;-72
2021/04/11 12:55:06;;;;;;;;;;;;;;;-142.75;46.60;77936.66;4993292;28;19914;-72